createdAt,value
2022-11-24T00:02:11.974Z,98079.19
2022-11-24T00:04:40.303Z,98089.50
2022-11-24T00:07:06.895Z,98085.53
2022-11-24T00:09:33.414Z,98088.88
2022-11-24T00:12:00.087Z,98093.94
2022-11-24T00:14:26.809Z,98096.63
2022-11-24T00:16:53.384Z,98099.81
2022-11-24T00:19:20.150Z,98102.19
2022-11-24T00:21:48.106Z,98094.59
2022-11-24T00:24:14.651Z,98098.38
2022-11-24T00:26:41.185Z,98103.00
2022-11-24T00:29:09.330Z,98113.78
2022-11-24T00:31:37.555Z,98106.66
2022-11-24T00:34:06.147Z,98107.91
2022-11-24T00:36:34.895Z,98103.78
2022-11-24T00:39:06.359Z,98105.03
2022-11-24T00:41:33.385Z,98112.03
2022-11-24T00:44:00.555Z,98101.56
2022-11-24T00:46:27.570Z,98103.28
2022-11-24T00:48:54.553Z,98105.50
2022-11-24T00:51:23.684Z,98120.94
2022-11-24T00:53:50.202Z,98122.16
2022-11-24T00:56:18.066Z,98115.34
2022-11-24T00:58:44.649Z,98111.84
2022-11-24T01:01:13.092Z,98129.63
2022-11-24T01:03:39.889Z,98120.59
2022-11-24T01:06:08.095Z,98122.97
2022-11-24T01:08:36.630Z,98143.75
2022-11-24T01:11:10.546Z,98140.13
2022-11-24T01:13:38.589Z,98151.72
2022-11-24T01:16:05.636Z,98153.44
2022-11-24T01:18:32.236Z,98153.28
2022-11-24T01:20:58.973Z,98156.59
2022-11-24T01:23:25.641Z,98155.00
2022-11-24T01:25:52.159Z,98160.56
2022-11-24T01:28:18.660Z,98154.84
2022-11-24T01:30:57.148Z,98156.75
2022-11-24T01:33:23.686Z,98152.94
2022-11-24T01:35:50.339Z,98155.47
2022-11-24T01:38:17.032Z,98154.03
2022-11-24T01:40:43.831Z,98161.47
2022-11-24T01:43:16.182Z,98158.31
2022-11-24T01:45:42.771Z,98156.41
2022-11-24T01:48:22.070Z,98159.22
2022-11-24T01:50:59.079Z,98153.97
2022-11-24T01:53:25.805Z,98155.88
2022-11-24T01:55:53.230Z,98154.63
2022-11-24T01:58:24.036Z,98163.84
2022-11-24T02:00:52.280Z,98166.41
2022-11-24T02:03:25.278Z,98179.13
2022-11-24T02:06:00.585Z,98178.31
2022-11-24T02:08:33.422Z,98179.91
2022-11-24T02:11:05.178Z,98183.41
2022-11-24T02:13:33.300Z,98172.41
2022-11-24T02:16:00.589Z,98183.88
2022-11-24T02:18:29.008Z,98183.06
2022-11-24T02:20:55.988Z,98179.22
2022-11-24T02:23:24.915Z,98182.41
2022-11-24T02:26:02.340Z,98183.88
2022-11-24T02:28:31.429Z,98181.00
2022-11-24T02:30:59.685Z,98188.47
2022-11-24T02:33:26.967Z,98188.59
2022-11-24T02:35:54.224Z,98193.69
2022-11-24T02:38:29.589Z,98185.91
2022-11-24T02:40:56.324Z,98196.22
2022-11-24T02:43:24.189Z,98198.94
2022-11-24T02:45:52.257Z,98199.72
2022-11-24T02:48:18.799Z,98196.59
2022-11-24T02:50:45.286Z,98194.03
2022-11-24T02:53:12.082Z,98191.34
2022-11-24T02:55:38.625Z,98198.50
2022-11-24T02:58:05.127Z,98201.22
2022-11-24T03:00:31.663Z,98196.59
2022-11-24T03:02:59.861Z,98201.84
2022-11-24T03:05:26.397Z,98202.44
2022-11-24T03:07:52.928Z,98197.72
2022-11-24T03:10:19.645Z,98200.41
2022-11-24T03:12:46.151Z,98205.16
2022-11-24T03:15:12.644Z,98195.81
2022-11-24T03:17:39.155Z,98216.28
2022-11-24T03:20:08.858Z,98197.53
2022-11-24T03:22:36.883Z,98214.06
2022-11-24T03:25:04.022Z,98202.78
2022-11-24T03:27:30.947Z,98211.25
2022-11-24T03:29:57.493Z,98210.88
2022-11-24T03:32:24.006Z,98202.00
2022-11-24T03:34:50.653Z,98212.97
2022-11-24T03:37:18.563Z,98212.97
2022-11-24T03:39:45.224Z,98221.56
2022-11-24T03:42:11.939Z,98223.31
2022-11-24T03:44:38.426Z,98223.31
2022-11-24T03:47:05.162Z,98224.91
2022-11-24T03:49:31.906Z,98223.97
2022-11-24T03:52:02.590Z,98231.09
2022-11-24T03:54:33.262Z,98240.63
2022-11-24T03:57:00.167Z,98234.28
2022-11-24T03:59:26.672Z,98243.50
2022-11-24T04:01:53.555Z,98240.47
2022-11-24T04:04:20.151Z,98242.88
2022-11-24T04:06:46.670Z,98239.03
2022-11-24T04:09:13.337Z,98239.38
2022-11-24T04:11:41.201Z,98246.34
2022-11-24T04:14:13.186Z,98249.22
2022-11-24T04:16:40.165Z,98243.50
2022-11-24T04:19:06.705Z,98254.28
2022-11-24T04:21:33.251Z,98250.31
2022-11-24T04:23:59.772Z,98253.81
2022-11-24T04:26:26.291Z,98252.88
2022-11-24T04:28:54.301Z,98257.81
2022-11-24T04:31:20.940Z,98257.16
2022-11-24T04:33:47.573Z,98266.03
2022-11-24T04:36:14.275Z,98260.81
2022-11-24T04:39:23.083Z,98257.78
2022-11-24T04:41:27.261Z,98256.81
2022-11-24T04:43:55.095Z,98269.09
2022-11-24T04:46:21.810Z,98271.00
2022-11-24T04:48:48.339Z,98269.09
2022-11-24T04:51:15.405Z,98265.91
2022-11-24T04:53:42.191Z,98261.13
2022-11-24T04:56:09.447Z,98265.09
2022-11-24T04:58:36.098Z,98273.34
2022-11-24T05:01:06.996Z,98275.41
2022-11-24T05:03:33.593Z,98277.63
2022-11-24T05:06:00.156Z,98275.41
2022-11-24T05:08:26.674Z,98277.50
2022-11-24T05:10:53.227Z,98283.69
2022-11-24T05:13:19.914Z,98286.72
2022-11-24T05:15:46.643Z,98287.50
2022-11-24T05:18:14.865Z,98280.66
2022-11-24T05:20:41.906Z,98292.59
2022-11-24T05:23:08.677Z,98287.34
2022-11-24T05:25:35.595Z,98288.44
2022-11-24T05:28:04.771Z,98302.13
2022-11-24T05:30:32.311Z,98308.31
2022-11-24T05:32:59.057Z,98302.13
2022-11-24T05:35:26.959Z,98308.78
2022-11-24T05:37:53.612Z,98304.50
2022-11-24T05:40:20.169Z,98310.06
2022-11-24T05:42:48.219Z,98308.81
2022-11-24T05:45:17.565Z,98310.84
2022-11-24T05:47:44.358Z,98319.13
2022-11-24T05:50:12.938Z,98320.41
2022-11-24T05:52:40.943Z,98324.69
2022-11-24T05:55:08.566Z,98327.22
2022-11-24T05:57:35.491Z,98327.53
2022-11-24T06:00:02.806Z,98338.50
2022-11-24T06:02:29.638Z,98340.72
2022-11-24T06:04:56.210Z,98344.88
2022-11-24T06:07:22.855Z,98343.47
2022-11-24T06:09:50.801Z,98345.22
2022-11-24T06:12:17.511Z,98354.88
2022-11-24T06:14:44.063Z,98362.06
2022-11-24T06:17:10.668Z,98374.16
2022-11-24T06:19:41.706Z,98371.91
2022-11-24T06:22:08.691Z,98371.59
2022-11-24T06:24:35.407Z,98378.91
2022-11-24T06:27:03.494Z,98373.50
2022-11-24T06:29:30.240Z,98379.69
2022-11-24T06:31:56.910Z,98377.66
2022-11-24T06:34:23.757Z,98375.56
2022-11-24T06:36:50.339Z,98375.88
2022-11-24T06:39:16.879Z,98370.16
2022-11-24T06:41:43.453Z,98370.66
2022-11-24T06:44:11.410Z,98374.78
2022-11-24T06:46:38.034Z,98363.00
2022-11-24T06:49:04.699Z,98364.13
2022-11-24T06:51:31.338Z,98365.88
2022-11-24T06:53:58.086Z,98370.47
2022-11-24T06:56:24.813Z,98375.41
2022-11-24T06:58:53.382Z,98376.19
2022-11-24T07:01:23.019Z,98384.00
2022-11-24T07:03:50.913Z,98381.78
2022-11-24T07:06:18.956Z,98387.34
2022-11-24T07:08:45.532Z,98396.69
2022-11-24T07:11:14.745Z,98393.38
2022-11-24T07:13:41.826Z,98405.59
2022-11-24T07:16:15.900Z,98399.88
2022-11-24T07:18:45.474Z,98402.28
2022-11-24T07:21:12.562Z,98405.91
2022-11-24T07:23:39.359Z,98407.84
2022-11-24T07:26:07.573Z,98398.13
2022-11-24T07:28:34.701Z,98403.56
2022-11-24T07:31:05.642Z,98400.53
2022-11-24T07:33:32.133Z,98401.16
2022-11-24T07:36:01.515Z,98404.00
2022-11-24T07:38:29.284Z,98406.38
2022-11-24T07:41:00.151Z,98403.06
2022-11-24T07:43:26.885Z,98399.72
2022-11-24T07:45:53.469Z,98410.53
2022-11-24T07:48:20.427Z,98413.22
2022-11-24T07:50:49.950Z,98414.00
2022-11-24T07:53:22.107Z,98418.75
2022-11-24T07:55:53.649Z,98425.94
2022-11-24T07:58:20.223Z,98422.41
2022-11-24T08:00:46.842Z,98425.13
2022-11-24T08:03:13.511Z,98425.28
2022-11-24T08:05:54.495Z,98428.94
2022-11-24T08:08:27.968Z,98441.81
2022-11-24T08:10:54.559Z,98447.25
2022-11-24T08:13:21.106Z,98439.59
2022-11-24T08:15:47.660Z,98443.06
2022-11-24T08:18:14.272Z,98453.13
2022-11-24T08:20:40.906Z,98444.34
2022-11-24T08:23:07.649Z,98446.25
2022-11-24T08:25:35.547Z,98451.84
2022-11-24T08:28:03.944Z,98446.09
2022-11-24T08:30:30.558Z,98458.97
2022-11-24T08:32:58.715Z,98459.28
2022-11-24T08:35:25.294Z,98459.75
2022-11-24T08:37:51.914Z,98463.09
2022-11-24T08:40:18.511Z,98466.41
2022-11-24T08:42:46.631Z,98466.56
2022-11-24T08:45:21.036Z,98471.78
2022-11-24T08:47:52.098Z,98474.66
2022-11-24T08:50:18.657Z,98488.00
2022-11-24T08:52:45.305Z,98495.19
2022-11-24T08:55:12.011Z,98493.41
2022-11-24T08:57:38.641Z,98499.28
2022-11-24T09:00:08.133Z,98503.13
2022-11-24T09:02:34.812Z,98498.19
2022-11-24T09:05:01.382Z,98503.28
2022-11-24T09:07:27.972Z,98497.97
2022-11-24T09:09:54.559Z,98503.56
2022-11-24T09:12:21.142Z,98501.00
2022-11-24T09:14:47.893Z,98502.41
2022-11-24T09:17:15.803Z,98506.81
2022-11-24T09:19:42.339Z,98505.50
2022-11-24T09:22:08.846Z,98517.22
2022-11-24T09:24:35.437Z,98514.94
2022-11-24T09:27:02.039Z,98513.75
2022-11-24T09:29:28.542Z,98516.34
2022-11-24T09:31:55.094Z,98526.53
2022-11-24T09:34:22.982Z,98524.50
2022-11-24T09:36:49.520Z,98534.72
2022-11-24T09:39:16.058Z,98533.59
2022-11-24T09:42:02.186Z,98535.03
2022-11-24T09:44:58.501Z,98540.00
2022-11-24T09:47:38.267Z,98540.50
2022-11-24T09:50:13.762Z,98545.81
2022-11-24T09:52:46.307Z,98551.53
2022-11-24T09:55:41.956Z,98550.91
2022-11-24T09:58:24.424Z,98549.53
2022-11-24T10:00:53.567Z,98557.69
2022-11-24T10:03:26.129Z,98557.56
2022-11-24T10:05:54.699Z,98565.03
2022-11-24T10:08:39.694Z,98558.22
2022-11-24T10:11:13.779Z,98561.25
2022-11-24T10:14:03.363Z,98562.69
2022-11-24T10:16:43.136Z,98562.06
2022-11-24T10:19:21.484Z,98566.84
2022-11-24T10:22:03.258Z,98570.34
2022-11-24T10:25:03.287Z,98571.00
2022-11-24T10:27:35.988Z,98570.22
2022-11-24T10:30:11.831Z,98565.72
2022-11-24T10:32:44.093Z,98568.25
2022-11-24T10:35:16.062Z,98583.00
2022-11-24T10:37:52.970Z,98573.34
2022-11-24T10:40:59.035Z,98572.09
2022-11-24T10:43:15.715Z,98569.63
2022-11-24T10:45:42.247Z,98567.97
2022-11-24T10:48:22.562Z,98566.53
2022-11-24T10:50:49.304Z,98569.03
2022-11-24T10:53:23.083Z,98565.97
2022-11-24T10:56:04.601Z,98565.13
2022-11-24T10:58:37.772Z,98575.25
2022-11-24T11:01:21.311Z,98569.22
2022-11-24T11:03:49.708Z,98572.66
2022-11-24T11:06:22.317Z,98577.75
2022-11-24T11:09:16.117Z,98571.38
2022-11-24T11:11:42.778Z,98581.81
2022-11-24T11:14:11.018Z,98573.00
2022-11-24T11:16:39.680Z,98575.13
2022-11-24T11:19:48.478Z,98580.78
2022-11-24T11:22:23.448Z,98581.78
2022-11-24T11:25:04.924Z,98589.84
2022-11-24T11:27:31.567Z,98607.19
2022-11-24T11:35:52.619Z,98597.56
2022-11-24T11:38:20.573Z,98595.63
2022-11-24T11:40:50.459Z,98596.50
2022-11-24T11:43:24.670Z,98599.16
2022-11-24T11:45:59.997Z,98599.94
2022-11-24T11:48:33.715Z,98595.97
2022-11-24T11:51:26.790Z,98588.50
2022-11-24T11:54:04.167Z,98597.94
2022-11-24T11:56:35.094Z,98607.91
2022-11-24T11:59:29.972Z,98606.50
2022-11-24T12:02:34.751Z,98609.22
2022-11-24T12:05:05.347Z,98607.78
2022-11-24T12:07:52.458Z,98615.19
2022-11-24T12:10:28.484Z,98612.66
2022-11-24T12:13:11.267Z,98616.19
2022-11-24T12:15:41.304Z,98613.78
2022-11-24T12:18:55.899Z,98622.59
2022-11-24T12:21:18.927Z,98618.81
2022-11-24T12:24:02.065Z,98623.28
2022-11-24T12:26:39.269Z,98636.22
2022-11-24T12:29:30.095Z,98628.72
2022-11-24T12:32:07.992Z,98633.69
2022-11-24T12:34:48.437Z,98641.69
2022-11-24T12:37:47.621Z,98638.31
2022-11-24T12:40:31.374Z,98640.97
2022-11-24T12:43:08.016Z,98643.69
2022-11-24T12:45:42.965Z,98650.06
2022-11-24T12:48:30.103Z,98648.38
2022-11-24T12:50:58.161Z,98646.16
2022-11-24T12:53:28.444Z,98652.41
2022-11-24T12:55:58.743Z,98649.25
2022-11-24T12:58:32.666Z,98646.78
2022-11-24T13:01:16.526Z,98653.06
2022-11-24T13:03:52.643Z,98648.97
2022-11-24T13:06:24.056Z,98658.44
2022-11-24T13:08:50.966Z,98673.31
2022-11-24T13:11:38.518Z,98672.59
2022-11-24T13:14:11.536Z,98665.56
2022-11-24T13:17:13.468Z,98675.50
2022-11-24T13:19:37.160Z,98677.22
2022-11-24T13:22:23.505Z,98679.28
2022-11-24T13:25:13.434Z,98685.34
2022-11-24T13:27:47.075Z,98679.94
2022-11-24T13:30:50.142Z,98692.38
2022-11-24T13:33:32.294Z,98694.78
2022-11-24T13:36:30.750Z,98710.25
2022-11-24T13:38:58.197Z,98701.31
2022-11-24T13:42:07.406Z,98712.50
2022-11-24T13:44:49.638Z,98703.28
2022-11-24T13:47:39.710Z,98702.69
2022-11-24T13:50:44.467Z,98713.53
2022-11-24T13:53:18.232Z,98707.63
2022-11-24T13:55:56.775Z,98701.25
2022-11-24T13:58:29.672Z,98705.88
2022-11-24T14:01:12.982Z,98714.03
2022-11-24T14:04:07.026Z,98709.41
2022-11-24T14:06:35.880Z,98703.06
2022-11-24T14:09:18.152Z,98715.81
2022-11-24T14:11:54.842Z,98715.16
2022-11-24T14:14:26.251Z,98715.78
2022-11-24T14:17:08.475Z,98713.09
2022-11-24T14:19:35.222Z,98705.16
2022-11-24T14:22:01.981Z,98720.25
2022-11-24T14:24:35.445Z,98722.03
2022-11-24T14:27:04.894Z,98726.06
2022-11-24T14:29:31.476Z,98731.03
2022-11-24T14:32:00.053Z,98731.56
2022-11-24T14:34:29.689Z,98733.59
2022-11-24T14:36:58.021Z,98734.06
2022-11-24T14:39:26.006Z,98736.81
2022-11-24T14:41:58.810Z,98742.88
2022-11-24T14:44:28.329Z,98742.38
2022-11-24T14:47:06.183Z,98745.88
2022-11-24T14:49:40.061Z,98751.91
2022-11-24T14:52:12.954Z,98748.22
2022-11-24T14:54:46.660Z,98742.69
2022-11-24T14:57:23.565Z,98754.34
2022-11-24T15:00:16.222Z,98754.06
2022-11-24T15:02:44.316Z,98752.03
2022-11-24T15:05:12.305Z,98754.78
2022-11-24T15:07:40.865Z,98749.66
2022-11-24T15:10:20.458Z,98755.31
2022-11-24T15:12:52.055Z,98750.38
2022-11-24T15:15:20.746Z,98756.47
2022-11-24T15:17:49.507Z,98754.41
2022-11-24T15:20:25.207Z,98764.28
2022-11-24T15:23:20.422Z,98762.88
2022-11-24T15:25:47.026Z,98768.75
2022-11-24T15:28:13.543Z,98762.34
2022-11-24T15:30:40.241Z,98765.38
2022-11-24T15:33:13.739Z,98769.81
2022-11-24T15:35:45.422Z,98768.81
2022-11-24T15:38:12.635Z,98768.94
2022-11-24T15:40:40.410Z,98780.34
2022-11-24T15:43:25.982Z,98772.81
2022-11-24T15:45:52.542Z,98780.25
2022-11-24T15:48:19.321Z,98783.97
2022-11-24T15:50:48.100Z,98782.13
2022-11-24T15:53:18.937Z,98790.66
2022-11-24T15:55:45.509Z,98790.91
2022-11-24T15:58:13.252Z,98787.91
2022-11-24T16:00:40.468Z,98796.59
2022-11-24T16:03:38.307Z,98801.44
2022-11-24T16:05:57.007Z,98801.91
2022-11-24T16:08:23.645Z,98810.63
2022-11-24T16:10:50.404Z,98810.56
2022-11-24T16:13:17.009Z,98816.16
2022-11-24T16:15:44.897Z,98823.97
2022-11-24T16:18:11.530Z,98817.69
2022-11-24T16:20:38.074Z,98817.59
2022-11-24T16:23:06.175Z,98822.41
2022-11-24T16:25:32.664Z,98829.91
2022-11-24T16:27:59.377Z,98826.31
2022-11-24T16:30:26.052Z,98828.09
2022-11-24T16:32:52.644Z,98822.00
2022-11-24T16:35:19.220Z,98821.47
2022-11-24T16:37:45.960Z,98824.88
2022-11-24T16:40:14.250Z,98821.53
2022-11-24T16:42:40.897Z,98822.53
2022-11-24T16:45:10.471Z,98824.81
2022-11-24T16:47:39.619Z,98832.78
2022-11-24T16:50:07.831Z,98833.97
2022-11-24T16:52:36.626Z,98834.13
2022-11-24T16:55:03.573Z,98835.06
2022-11-24T16:57:31.842Z,98838.72
2022-11-24T16:59:58.500Z,98832.09
2022-11-24T17:02:25.475Z,98831.06
2022-11-24T17:04:52.373Z,98841.03
2022-11-24T17:07:19.746Z,98838.59
2022-11-24T17:09:46.616Z,98841.00
2022-11-24T17:12:13.368Z,98839.28
2022-11-24T17:14:41.600Z,98842.34
2022-11-24T17:17:08.320Z,98840.56
2022-11-24T17:19:35.110Z,98842.31
2022-11-24T17:22:01.902Z,98843.44
2022-11-24T17:24:28.635Z,98849.88
2022-11-24T17:26:55.538Z,98844.03
2022-11-24T17:29:22.384Z,98844.19
2022-11-24T17:31:50.593Z,98849.91
2022-11-24T17:34:17.587Z,98843.00
2022-11-24T17:36:44.442Z,98859.69
2022-11-24T17:39:11.494Z,98849.53
2022-11-24T17:41:38.384Z,98859.03
2022-11-24T17:44:05.370Z,98859.91
2022-11-24T17:46:32.096Z,98862.94
2022-11-24T17:49:00.395Z,98862.50
2022-11-24T17:51:27.413Z,98864.94
2022-11-24T17:53:55.388Z,98869.00
2022-11-24T17:56:24.146Z,98863.13
2022-11-24T17:58:52.928Z,98864.41
2022-11-24T18:01:19.979Z,98864.41
2022-11-24T18:03:50.467Z,98867.06
2022-11-24T18:06:21.681Z,98875.63
2022-11-24T18:08:48.194Z,98872.72
2022-11-24T18:11:17.203Z,98865.28
2022-11-24T18:14:01.134Z,98868.53
2022-11-24T18:16:28.897Z,98870.94
2022-11-24T18:19:07.385Z,98876.31
2022-11-24T18:21:37.121Z,98880.91
2022-11-24T18:24:03.976Z,98884.41
2022-11-24T18:26:30.550Z,98885.00
2022-11-24T18:28:57.107Z,98888.50
2022-11-24T18:31:23.742Z,98881.72
2022-11-24T18:33:50.386Z,98881.19
2022-11-24T18:36:18.909Z,98889.94
2022-11-24T18:38:46.766Z,98886.38
2022-11-24T18:41:14.644Z,98881.88
2022-11-24T18:43:41.746Z,98880.53
2022-11-24T18:46:10.883Z,98884.03
2022-11-24T18:48:37.376Z,98881.94
2022-11-24T18:51:03.991Z,98884.66
2022-11-24T18:53:30.557Z,98866.81
2022-11-24T18:56:00.470Z,98882.78
2022-11-24T18:58:28.309Z,98884.38
2022-11-24T19:00:55.743Z,98884.56
2022-11-24T19:03:22.425Z,98885.94
2022-11-24T19:05:48.996Z,98884.84
2022-11-24T19:08:15.477Z,98886.47
2022-11-24T19:10:41.995Z,98883.78
2022-11-24T19:13:09.881Z,98894.63
2022-11-24T19:15:36.595Z,98893.25
2022-11-24T19:18:03.237Z,98881.09
2022-11-24T19:20:29.805Z,98888.94
2022-11-24T19:22:56.305Z,98885.88
2022-11-24T19:25:22.946Z,98879.31
2022-11-24T19:27:49.497Z,98895.13
2022-11-24T19:30:17.826Z,98886.72
2022-11-24T19:32:44.364Z,98897.44
2022-11-24T19:35:11.195Z,98888.72
2022-11-24T19:37:37.758Z,98890.19
2022-11-24T19:40:05.395Z,98894.69
2022-11-24T19:42:31.935Z,98894.03
2022-11-24T19:44:58.463Z,98893.84
2022-11-24T19:47:26.419Z,98895.47
2022-11-24T19:49:52.954Z,98897.16
2022-11-24T19:52:19.521Z,98902.88
2022-11-24T19:54:46.179Z,98904.28
2022-11-24T19:57:12.768Z,98905.41
2022-11-24T19:59:39.318Z,98898.28
2022-11-24T20:02:06.179Z,98907.09
2022-11-24T20:04:34.391Z,98907.19
2022-11-24T20:07:01.189Z,98907.47
2022-11-24T20:09:27.755Z,98906.56
2022-11-24T20:11:54.499Z,98907.59
2022-11-24T20:14:21.168Z,98908.56
2022-11-24T20:16:48.038Z,98908.38
2022-11-24T20:19:16.457Z,98905.19
2022-11-24T20:21:45.251Z,98903.72
2022-11-24T20:24:13.857Z,98905.97
2022-11-24T20:26:42.590Z,98906.38
2022-11-24T20:29:11.028Z,98899.69
2022-11-24T20:31:40.139Z,98903.78
2022-11-24T20:34:07.711Z,98901.97
2022-11-24T20:36:37.809Z,98898.78
2022-11-24T20:39:08.702Z,98909.97
2022-11-24T20:41:36.453Z,98910.59
2022-11-24T20:44:05.266Z,98917.03
2022-11-24T20:46:34.255Z,98912.94
2022-11-24T20:49:01.497Z,98908.81
2022-11-24T20:51:30.327Z,98910.53
2022-11-24T20:53:58.474Z,98907.75
2022-11-24T20:56:28.603Z,98915.38
2022-11-24T20:58:55.442Z,98915.19
2022-11-24T21:01:24.788Z,98919.91
2022-11-24T21:03:53.750Z,98916.50
2022-11-24T21:06:20.410Z,98919.59
2022-11-24T21:08:46.933Z,98922.09
2022-11-24T21:11:14.661Z,98916.25
2022-11-24T21:13:44.583Z,98913.66
2022-11-24T21:16:12.510Z,98921.22
2022-11-24T21:18:39.217Z,98923.72
2022-11-24T21:21:06.473Z,98920.47
2022-11-24T21:23:36.925Z,98921.06
2022-11-24T21:26:05.695Z,98915.72
2022-11-24T21:28:33.561Z,98915.78
2022-11-24T21:31:04.298Z,98915.59
2022-11-24T21:33:31.045Z,98914.31
2022-11-24T21:36:01.075Z,98910.88
2022-11-24T21:38:27.678Z,98916.53
2022-11-24T21:40:54.253Z,98907.19
2022-11-24T21:43:20.907Z,98907.19
2022-11-24T21:45:47.487Z,98905.59
2022-11-24T21:48:15.564Z,98912.06
2022-11-24T21:50:42.121Z,98909.38
2022-11-24T21:53:08.649Z,98904.81
2022-11-24T21:55:35.158Z,98909.41
2022-11-24T21:58:01.724Z,98913.97
2022-11-24T22:00:28.252Z,98915.84
2022-11-24T22:02:54.795Z,98908.88
2022-11-24T22:05:22.726Z,98910.19
2022-11-24T22:07:49.355Z,98905.91
2022-11-24T22:10:16.182Z,98911.31
2022-11-24T22:12:42.671Z,98914.81
2022-11-24T22:15:09.966Z,98914.81
2022-11-24T22:17:36.548Z,98920.97
2022-11-24T22:20:03.455Z,98921.00
2022-11-24T22:22:31.399Z,98925.88
2022-11-24T22:24:57.951Z,98926.69
2022-11-24T22:27:24.621Z,98933.91
2022-11-24T22:29:54.085Z,98939.28
2022-11-24T22:32:20.911Z,98935.84
2022-11-24T22:34:47.423Z,98930.44
2022-11-24T22:37:14.003Z,98934.47
2022-11-24T22:39:41.883Z,98934.19
2022-11-24T22:42:08.550Z,98925.09
2022-11-24T22:44:35.218Z,98933.16
2022-11-24T22:47:01.931Z,98928.31
2022-11-24T22:49:28.553Z,98928.06
2022-11-24T22:51:55.073Z,98913.28
2022-11-24T22:54:21.773Z,98914.91
2022-11-24T22:56:49.733Z,98914.69
2022-11-24T22:59:16.282Z,98921.94
2022-11-24T23:01:42.820Z,98927.28
2022-11-24T23:04:09.366Z,98931.31
2022-11-24T23:06:35.923Z,98924.06
2022-11-24T23:09:04.027Z,98926.75
2022-11-24T23:11:37.731Z,98922.16
2022-11-24T23:14:07.524Z,98925.09
2022-11-24T23:16:34.167Z,98908.47
2022-11-24T23:19:00.685Z,98921.34
2022-11-24T23:21:28.464Z,98923.78
2022-11-24T23:23:55.998Z,98917.91
2022-11-24T23:26:23.985Z,98924.06
2022-11-24T23:28:50.820Z,98921.88
2022-11-24T23:31:20.508Z,98913.03
2022-11-24T23:33:47.748Z,98919.19
2022-11-24T23:36:15.718Z,98914.91
2022-11-24T23:38:43.560Z,98917.31
2022-11-24T23:41:11.535Z,98914.63
2022-11-24T23:43:39.846Z,98913.56
2022-11-24T23:46:08.095Z,98912.22
2022-11-24T23:48:36.578Z,98926.72
2022-11-24T23:51:04.374Z,98910.63
2022-11-24T23:53:31.380Z,98926.97
2022-11-24T23:55:57.883Z,98910.63
2022-11-24T23:58:24.560Z,98924.84
